sensor_id;sensor_type;location;lat;lon;timestamp;P1;durP1;ratioP1;P2;durP2;ratioP2
20976;SDS011;10647;51.016;3.720;2022-12-29T00:00:35;2.23;;;1.33;;
20976;SDS011;10647;51.016;3.720;2022-12-29T00:03:03;1.33;;;0.90;;
20976;SDS011;10647;51.016;3.720;2022-12-29T00:05:31;1.53;;;1.00;;
20976;SDS011;10647;51.016;3.720;2022-12-29T00:07:59;2.87;;;1.10;;
20976;SDS011;10647;51.016;3.720;2022-12-29T00:10:26;2.30;;;0.90;;
20976;SDS011;10647;51.016;3.720;2022-12-29T00:12:54;3.23;;;0.77;;
20976;SDS011;10647;51.016;3.720;2022-12-29T00:15:39;2.77;;;0.80;;
20976;SDS011;10647;51.016;3.720;2022-12-29T00:18:07;1.47;;;0.77;;
20976;SDS011;10647;51.016;3.720;2022-12-29T00:20:35;2.67;;;0.80;;
20976;SDS011;10647;51.016;3.720;2022-12-29T00:23:21;2.27;;;0.77;;
20976;SDS011;10647;51.016;3.720;2022-12-29T00:26:15;1.70;;;0.70;;
20976;SDS011;10647;51.016;3.720;2022-12-29T00:29:01;1.50;;;0.70;;
20976;SDS011;10647;51.016;3.720;2022-12-29T00:31:50;2.43;;;0.90;;
20976;SDS011;10647;51.016;3.720;2022-12-29T00:34:25;3.10;;;0.80;;
20976;SDS011;10647;51.016;3.720;2022-12-29T00:39:41;3.10;;;1.00;;
20976;SDS011;10647;51.016;3.720;2022-12-29T00:42:26;3.13;;;0.90;;
20976;SDS011;10647;51.016;3.720;2022-12-29T00:45:12;4.87;;;0.70;;
20976;SDS011;10647;51.016;3.720;2022-12-29T00:47:41;3.97;;;0.87;;
20976;SDS011;10647;51.016;3.720;2022-12-29T00:50:09;4.13;;;0.63;;
20976;SDS011;10647;51.016;3.720;2022-12-29T00:52:36;3.20;;;0.90;;
20976;SDS011;10647;51.016;3.720;2022-12-29T00:55:04;3.37;;;0.90;;
20976;SDS011;10647;51.016;3.720;2022-12-29T00:57:33;2.23;;;0.77;;
20976;SDS011;10647;51.016;3.720;2022-12-29T01:00:01;3.83;;;0.90;;
20976;SDS011;10647;51.016;3.720;2022-12-29T01:02:29;2.80;;;0.83;;
20976;SDS011;10647;51.016;3.720;2022-12-29T01:04:56;5.20;;;1.00;;
20976;SDS011;10647;51.016;3.720;2022-12-29T01:07:24;5.37;;;0.90;;
20976;SDS011;10647;51.016;3.720;2022-12-29T01:09:51;4.37;;;0.80;;
20976;SDS011;10647;51.016;3.720;2022-12-29T01:12:37;6.87;;;1.00;;
20976;SDS011;10647;51.016;3.720;2022-12-29T01:15:10;4.60;;;0.80;;
20976;SDS011;10647;51.016;3.720;2022-12-29T01:17:39;3.30;;;1.13;;
20976;SDS011;10647;51.016;3.720;2022-12-29T01:22:54;2.80;;;0.80;;
20976;SDS011;10647;51.016;3.720;2022-12-29T01:25:21;4.03;;;0.83;;
20976;SDS011;10647;51.016;3.720;2022-12-29T01:27:49;3.53;;;0.80;;
20976;SDS011;10647;51.016;3.720;2022-12-29T01:30:16;5.47;;;1.20;;
20976;SDS011;10647;51.016;3.720;2022-12-29T01:32:50;5.37;;;1.10;;
20976;SDS011;10647;51.016;3.720;2022-12-29T01:35:19;6.07;;;0.90;;
20976;SDS011;10647;51.016;3.720;2022-12-29T01:37:47;5.40;;;1.13;;
20976;SDS011;10647;51.016;3.720;2022-12-29T01:40:14;5.07;;;0.90;;
20976;SDS011;10647;51.016;3.720;2022-12-29T01:42:43;5.00;;;0.97;;
20976;SDS011;10647;51.016;3.720;2022-12-29T01:45:11;5.70;;;0.77;;
20976;SDS011;10647;51.016;3.720;2022-12-29T01:47:44;5.87;;;0.80;;
20976;SDS011;10647;51.016;3.720;2022-12-29T01:50:20;4.33;;;0.70;;
20976;SDS011;10647;51.016;3.720;2022-12-29T01:52:56;5.23;;;1.00;;
20976;SDS011;10647;51.016;3.720;2022-12-29T01:55:25;4.37;;;0.90;;
20976;SDS011;10647;51.016;3.720;2022-12-29T01:57:55;5.60;;;0.93;;
20976;SDS011;10647;51.016;3.720;2022-12-29T02:00:26;4.43;;;0.70;;
20976;SDS011;10647;51.016;3.720;2022-12-29T02:02:53;6.63;;;0.90;;
20976;SDS011;10647;51.016;3.720;2022-12-29T02:05:47;4.27;;;0.93;;
20976;SDS011;10647;51.016;3.720;2022-12-29T02:08:18;4.60;;;1.53;;
20976;SDS011;10647;51.016;3.720;2022-12-29T02:10:48;6.70;;;1.00;;
20976;SDS011;10647;51.016;3.720;2022-12-29T02:24:45;5.97;;;1.03;;
20976;SDS011;10647;51.016;3.720;2022-12-29T02:30:13;4.17;;;1.07;;
20976;SDS011;10647;51.016;3.720;2022-12-29T02:40:56;5.10;;;0.93;;
20976;SDS011;10647;51.016;3.720;2022-12-29T02:43:26;3.07;;;0.87;;
20976;SDS011;10647;51.016;3.720;2022-12-29T02:46:21;4.17;;;0.77;;
20976;SDS011;10647;51.016;3.720;2022-12-29T02:48:58;5.57;;;1.10;;
20976;SDS011;10647;51.016;3.720;2022-12-29T02:51:27;4.20;;;0.70;;
20976;SDS011;10647;51.016;3.720;2022-12-29T02:53:57;3.40;;;0.77;;
20976;SDS011;10647;51.016;3.720;2022-12-29T02:56:43;6.07;;;0.90;;
20976;SDS011;10647;51.016;3.720;2022-12-29T02:59:11;5.40;;;0.80;;
20976;SDS011;10647;51.016;3.720;2022-12-29T03:01:46;3.60;;;0.70;;
20976;SDS011;10647;51.016;3.720;2022-12-29T03:21:59;4.10;;;0.97;;
20976;SDS011;10647;51.016;3.720;2022-12-29T03:27:22;8.83;;;1.17;;
20976;SDS011;10647;51.016;3.720;2022-12-29T03:29:53;2.53;;;0.80;;
20976;SDS011;10647;51.016;3.720;2022-12-29T03:32:28;7.30;;;1.10;;
20976;SDS011;10647;51.016;3.720;2022-12-29T03:34:56;5.87;;;1.10;;
20976;SDS011;10647;51.016;3.720;2022-12-29T03:37:28;8.90;;;1.30;;
20976;SDS011;10647;51.016;3.720;2022-12-29T03:39:57;6.90;;;1.43;;
20976;SDS011;10647;51.016;3.720;2022-12-29T03:42:27;5.97;;;1.37;;
20976;SDS011;10647;51.016;3.720;2022-12-29T03:44:58;5.43;;;1.00;;
20976;SDS011;10647;51.016;3.720;2022-12-29T03:47:25;5.57;;;1.23;;
20976;SDS011;10647;51.016;3.720;2022-12-29T03:49:53;8.77;;;1.20;;
20976;SDS011;10647;51.016;3.720;2022-12-29T03:52:21;7.83;;;1.37;;
20976;SDS011;10647;51.016;3.720;2022-12-29T03:54:49;8.67;;;1.33;;
20976;SDS011;10647;51.016;3.720;2022-12-29T03:57:18;11.43;;;1.17;;
20976;SDS011;10647;51.016;3.720;2022-12-29T03:59:45;9.87;;;1.30;;
20976;SDS011;10647;51.016;3.720;2022-12-29T04:02:13;8.77;;;1.23;;
20976;SDS011;10647;51.016;3.720;2022-12-29T04:04:41;5.70;;;0.90;;
20976;SDS011;10647;51.016;3.720;2022-12-29T04:07:09;6.57;;;1.03;;
20976;SDS011;10647;51.016;3.720;2022-12-29T04:09:36;8.50;;;1.30;;
20976;SDS011;10647;51.016;3.720;2022-12-29T04:12:17;10.37;;;1.10;;
20976;SDS011;10647;51.016;3.720;2022-12-29T04:14:44;8.03;;;1.03;;
20976;SDS011;10647;51.016;3.720;2022-12-29T04:17:18;11.57;;;1.20;;
20976;SDS011;10647;51.016;3.720;2022-12-29T04:19:45;7.77;;;1.27;;
20976;SDS011;10647;51.016;3.720;2022-12-29T04:22:14;10.97;;;1.17;;
20976;SDS011;10647;51.016;3.720;2022-12-29T04:24:41;7.33;;;1.00;;
20976;SDS011;10647;51.016;3.720;2022-12-29T04:27:09;9.53;;;1.27;;
20976;SDS011;10647;51.016;3.720;2022-12-29T04:29:42;9.73;;;1.30;;
20976;SDS011;10647;51.016;3.720;2022-12-29T04:32:09;11.00;;;1.00;;
20976;SDS011;10647;51.016;3.720;2022-12-29T04:34:37;11.07;;;1.40;;
20976;SDS011;10647;51.016;3.720;2022-12-29T04:37:04;5.63;;;1.20;;
20976;SDS011;10647;51.016;3.720;2022-12-29T04:39:32;4.43;;;0.90;;
20976;SDS011;10647;51.016;3.720;2022-12-29T04:42:01;8.70;;;1.27;;
20976;SDS011;10647;51.016;3.720;2022-12-29T04:44:28;9.10;;;1.30;;
20976;SDS011;10647;51.016;3.720;2022-12-29T04:46:56;8.97;;;1.27;;
20976;SDS011;10647;51.016;3.720;2022-12-29T04:49:23;10.97;;;1.50;;
20976;SDS011;10647;51.016;3.720;2022-12-29T04:51:51;4.73;;;1.00;;
20976;SDS011;10647;51.016;3.720;2022-12-29T04:54:18;7.03;;;1.20;;
20976;SDS011;10647;51.016;3.720;2022-12-29T04:56:47;8.07;;;1.47;;
20976;SDS011;10647;51.016;3.720;2022-12-29T04:59:14;6.23;;;1.20;;
20976;SDS011;10647;51.016;3.720;2022-12-29T05:01:42;7.00;;;1.30;;
20976;SDS011;10647;51.016;3.720;2022-12-29T05:04:10;6.60;;;1.10;;
20976;SDS011;10647;51.016;3.720;2022-12-29T05:06:38;10.53;;;1.40;;
20976;SDS011;10647;51.016;3.720;2022-12-29T05:09:06;10.37;;;1.20;;
20976;SDS011;10647;51.016;3.720;2022-12-29T05:11:35;5.47;;;1.10;;
20976;SDS011;10647;51.016;3.720;2022-12-29T05:14:03;5.90;;;1.00;;
20976;SDS011;10647;51.016;3.720;2022-12-29T05:16:31;3.03;;;0.97;;
20976;SDS011;10647;51.016;3.720;2022-12-29T05:18:58;7.03;;;1.40;;
20976;SDS011;10647;51.016;3.720;2022-12-29T05:21:26;5.03;;;0.80;;
20976;SDS011;10647;51.016;3.720;2022-12-29T05:23:54;5.17;;;1.10;;
20976;SDS011;10647;51.016;3.720;2022-12-29T05:26:23;7.93;;;0.97;;
20976;SDS011;10647;51.016;3.720;2022-12-29T05:28:51;7.13;;;1.40;;
20976;SDS011;10647;51.016;3.720;2022-12-29T05:31:18;6.37;;;1.30;;
20976;SDS011;10647;51.016;3.720;2022-12-29T05:33:47;7.03;;;1.03;;
20976;SDS011;10647;51.016;3.720;2022-12-29T05:36:14;11.70;;;1.37;;
20976;SDS011;10647;51.016;3.720;2022-12-29T05:38:44;8.47;;;1.40;;
20976;SDS011;10647;51.016;3.720;2022-12-29T05:41:11;8.03;;;1.20;;
20976;SDS011;10647;51.016;3.720;2022-12-29T05:43:39;7.97;;;0.97;;
20976;SDS011;10647;51.016;3.720;2022-12-29T05:46:07;4.27;;;1.00;;
20976;SDS011;10647;51.016;3.720;2022-12-29T05:48:35;9.43;;;1.33;;
20976;SDS011;10647;51.016;3.720;2022-12-29T05:51:02;10.37;;;1.53;;
20976;SDS011;10647;51.016;3.720;2022-12-29T05:53:30;12.47;;;1.20;;
20976;SDS011;10647;51.016;3.720;2022-12-29T05:55:58;6.90;;;1.20;;
20976;SDS011;10647;51.016;3.720;2022-12-29T05:58:25;6.23;;;1.37;;
20976;SDS011;10647;51.016;3.720;2022-12-29T06:00:53;11.53;;;1.50;;
20976;SDS011;10647;51.016;3.720;2022-12-29T06:03:20;8.80;;;1.50;;
20976;SDS011;10647;51.016;3.720;2022-12-29T06:05:49;8.77;;;1.43;;
20976;SDS011;10647;51.016;3.720;2022-12-29T06:08:16;11.00;;;1.73;;
20976;SDS011;10647;51.016;3.720;2022-12-29T06:10:44;6.70;;;1.03;;
20976;SDS011;10647;51.016;3.720;2022-12-29T06:13:11;11.40;;;1.53;;
20976;SDS011;10647;51.016;3.720;2022-12-29T06:15:39;6.47;;;1.43;;
20976;SDS011;10647;51.016;3.720;2022-12-29T06:18:06;7.67;;;1.10;;
20976;SDS011;10647;51.016;3.720;2022-12-29T06:20:34;11.53;;;1.93;;
20976;SDS011;10647;51.016;3.720;2022-12-29T06:23:01;10.43;;;1.50;;
20976;SDS011;10647;51.016;3.720;2022-12-29T06:25:29;7.93;;;1.20;;
20976;SDS011;10647;51.016;3.720;2022-12-29T06:27:58;9.73;;;1.63;;
20976;SDS011;10647;51.016;3.720;2022-12-29T06:30:25;9.63;;;1.60;;
20976;SDS011;10647;51.016;3.720;2022-12-29T06:32:53;15.53;;;2.30;;
20976;SDS011;10647;51.016;3.720;2022-12-29T06:35:20;7.57;;;1.27;;
20976;SDS011;10647;51.016;3.720;2022-12-29T06:37:50;8.93;;;1.63;;
20976;SDS011;10647;51.016;3.720;2022-12-29T06:40:18;17.20;;;2.20;;
20976;SDS011;10647;51.016;3.720;2022-12-29T06:42:47;8.97;;;1.80;;
20976;SDS011;10647;51.016;3.720;2022-12-29T06:45:15;10.70;;;1.70;;
20976;SDS011;10647;51.016;3.720;2022-12-29T06:47:42;13.33;;;1.70;;
20976;SDS011;10647;51.016;3.720;2022-12-29T06:50:10;13.47;;;2.03;;
20976;SDS011;10647;51.016;3.720;2022-12-29T06:52:38;12.13;;;1.80;;
20976;SDS011;10647;51.016;3.720;2022-12-29T06:55:05;9.77;;;1.40;;
20976;SDS011;10647;51.016;3.720;2022-12-29T06:57:33;11.30;;;1.63;;
20976;SDS011;10647;51.016;3.720;2022-12-29T07:00:01;14.13;;;2.67;;
20976;SDS011;10647;51.016;3.720;2022-12-29T07:02:30;12.63;;;1.70;;
20976;SDS011;10647;51.016;3.720;2022-12-29T07:04:58;11.13;;;2.10;;
20976;SDS011;10647;51.016;3.720;2022-12-29T07:07:26;7.43;;;1.53;;
20976;SDS011;10647;51.016;3.720;2022-12-29T07:09:53;9.33;;;2.23;;
20976;SDS011;10647;51.016;3.720;2022-12-29T07:12:21;12.23;;;1.70;;
20976;SDS011;10647;51.016;3.720;2022-12-29T07:14:49;11.03;;;2.13;;
20976;SDS011;10647;51.016;3.720;2022-12-29T07:17:17;11.60;;;2.03;;
20976;SDS011;10647;51.016;3.720;2022-12-29T07:19:44;13.07;;;1.80;;
20976;SDS011;10647;51.016;3.720;2022-12-29T07:22:12;13.50;;;1.80;;
20976;SDS011;10647;51.016;3.720;2022-12-29T07:24:39;11.70;;;1.83;;
20976;SDS011;10647;51.016;3.720;2022-12-29T07:27:08;8.50;;;1.67;;
20976;SDS011;10647;51.016;3.720;2022-12-29T07:29:36;9.50;;;1.70;;
20976;SDS011;10647;51.016;3.720;2022-12-29T07:32:04;12.43;;;1.95;;
20976;SDS011;10647;51.016;3.720;2022-12-29T07:34:33;14.23;;;1.90;;
20976;SDS011;10647;51.016;3.720;2022-12-29T07:37:00;12.37;;;1.60;;
20976;SDS011;10647;51.016;3.720;2022-12-29T07:39:28;10.97;;;1.53;;
20976;SDS011;10647;51.016;3.720;2022-12-29T07:41:56;13.03;;;2.00;;
20976;SDS011;10647;51.016;3.720;2022-12-29T07:44:24;17.60;;;2.20;;
20976;SDS011;10647;51.016;3.720;2022-12-29T07:46:52;9.60;;;1.80;;
20976;SDS011;10647;51.016;3.720;2022-12-29T07:49:19;10.50;;;1.87;;
20976;SDS011;10647;51.016;3.720;2022-12-29T07:51:47;13.37;;;2.20;;
20976;SDS011;10647;51.016;3.720;2022-12-29T07:54:14;9.53;;;1.70;;
20976;SDS011;10647;51.016;3.720;2022-12-29T07:56:44;12.07;;;2.03;;
20976;SDS011;10647;51.016;3.720;2022-12-29T07:59:12;12.20;;;1.90;;
20976;SDS011;10647;51.016;3.720;2022-12-29T08:01:39;11.50;;;2.00;;
20976;SDS011;10647;51.016;3.720;2022-12-29T08:04:07;12.27;;;2.37;;
20976;SDS011;10647;51.016;3.720;2022-12-29T08:06:34;16.50;;;2.00;;
20976;SDS011;10647;51.016;3.720;2022-12-29T08:09:03;17.67;;;1.93;;
20976;SDS011;10647;51.016;3.720;2022-12-29T08:11:30;11.00;;;1.73;;
20976;SDS011;10647;51.016;3.720;2022-12-29T08:13:58;18.07;;;2.20;;
20976;SDS011;10647;51.016;3.720;2022-12-29T08:16:26;8.63;;;1.80;;
20976;SDS011;10647;51.016;3.720;2022-12-29T08:18:53;12.17;;;2.20;;
20976;SDS011;10647;51.016;3.720;2022-12-29T08:21:21;9.50;;;1.90;;
20976;SDS011;10647;51.016;3.720;2022-12-29T08:23:49;12.67;;;2.10;;
20976;SDS011;10647;51.016;3.720;2022-12-29T08:26:16;11.77;;;1.87;;
20976;SDS011;10647;51.016;3.720;2022-12-29T08:28:45;12.87;;;2.40;;
20976;SDS011;10647;51.016;3.720;2022-12-29T08:31:12;13.47;;;2.43;;
20976;SDS011;10647;51.016;3.720;2022-12-29T08:33:40;13.30;;;2.10;;
20976;SDS011;10647;51.016;3.720;2022-12-29T08:36:07;14.57;;;2.10;;
20976;SDS011;10647;51.016;3.720;2022-12-29T08:38:36;12.13;;;2.00;;
20976;SDS011;10647;51.016;3.720;2022-12-29T08:41:04;15.13;;;2.27;;
20976;SDS011;10647;51.016;3.720;2022-12-29T08:43:31;19.23;;;2.63;;
20976;SDS011;10647;51.016;3.720;2022-12-29T08:45:59;9.97;;;1.90;;
20976;SDS011;10647;51.016;3.720;2022-12-29T08:48:26;11.80;;;2.00;;
20976;SDS011;10647;51.016;3.720;2022-12-29T08:50:54;11.40;;;2.10;;
20976;SDS011;10647;51.016;3.720;2022-12-29T08:53:22;16.67;;;2.10;;
20976;SDS011;10647;51.016;3.720;2022-12-29T08:55:54;16.40;;;2.33;;
20976;SDS011;10647;51.016;3.720;2022-12-29T08:58:22;12.27;;;2.00;;
20976;SDS011;10647;51.016;3.720;2022-12-29T09:00:55;14.93;;;2.00;;
20976;SDS011;10647;51.016;3.720;2022-12-29T09:03:43;13.47;;;2.00;;
20976;SDS011;10647;51.016;3.720;2022-12-29T09:06:13;11.83;;;2.03;;
20976;SDS011;10647;51.016;3.720;2022-12-29T09:08:44;13.77;;;1.90;;
20976;SDS011;10647;51.016;3.720;2022-12-29T09:11:22;18.77;;;2.27;;
20976;SDS011;10647;51.016;3.720;2022-12-29T09:14:04;12.03;;;2.37;;
20976;SDS011;10647;51.016;3.720;2022-12-29T09:16:32;12.07;;;2.33;;
20976;SDS011;10647;51.016;3.720;2022-12-29T09:19:01;15.87;;;2.50;;
20976;SDS011;10647;51.016;3.720;2022-12-29T09:21:29;18.80;;;2.20;;
20976;SDS011;10647;51.016;3.720;2022-12-29T09:23:57;15.97;;;2.57;;
20976;SDS011;10647;51.016;3.720;2022-12-29T09:26:24;15.63;;;2.87;;
20976;SDS011;10647;51.016;3.720;2022-12-29T09:28:52;15.30;;;2.83;;
20976;SDS011;10647;51.016;3.720;2022-12-29T09:31:19;19.40;;;2.30;;
20976;SDS011;10647;51.016;3.720;2022-12-29T09:33:47;20.40;;;2.60;;
20976;SDS011;10647;51.016;3.720;2022-12-29T09:36:18;18.37;;;2.73;;
20976;SDS011;10647;51.016;3.720;2022-12-29T09:38:45;23.83;;;3.47;;
20976;SDS011;10647;51.016;3.720;2022-12-29T09:41:37;16.97;;;2.30;;
20976;SDS011;10647;51.016;3.720;2022-12-29T09:44:06;20.30;;;2.60;;
20976;SDS011;10647;51.016;3.720;2022-12-29T09:46:37;18.50;;;2.60;;
20976;SDS011;10647;51.016;3.720;2022-12-29T09:51:53;16.63;;;2.30;;
20976;SDS011;10647;51.016;3.720;2022-12-29T09:57:03;19.93;;;2.80;;
20976;SDS011;10647;51.016;3.720;2022-12-29T10:02:14;11.63;;;2.27;;
20976;SDS011;10647;51.016;3.720;2022-12-29T10:04:44;14.83;;;2.60;;
20976;SDS011;10647;51.016;3.720;2022-12-29T10:07:15;25.27;;;2.40;;
20976;SDS011;10647;51.016;3.720;2022-12-29T10:15:42;16.90;;;2.93;;
20976;SDS011;10647;51.016;3.720;2022-12-29T10:20:52;19.77;;;2.70;;
20976;SDS011;10647;51.016;3.720;2022-12-29T10:23:28;17.77;;;2.60;;
20976;SDS011;10647;51.016;3.720;2022-12-29T10:25:58;15.13;;;2.47;;
20976;SDS011;10647;51.016;3.720;2022-12-29T10:28:42;16.40;;;2.33;;
20976;SDS011;10647;51.016;3.720;2022-12-29T10:31:11;13.73;;;1.90;;
20976;SDS011;10647;51.016;3.720;2022-12-29T10:33:40;15.77;;;2.53;;
20976;SDS011;10647;51.016;3.720;2022-12-29T10:36:15;16.47;;;2.20;;
20976;SDS011;10647;51.016;3.720;2022-12-29T10:41:18;10.30;;;1.80;;
20976;SDS011;10647;51.016;3.720;2022-12-29T10:43:54;14.93;;;2.33;;
20976;SDS011;10647;51.016;3.720;2022-12-29T10:46:25;13.60;;;2.03;;
20976;SDS011;10647;51.016;3.720;2022-12-29T10:48:58;9.30;;;1.30;;
20976;SDS011;10647;51.016;3.720;2022-12-29T10:51:47;9.83;;;1.90;;
20976;SDS011;10647;51.016;3.720;2022-12-29T10:54:21;7.43;;;1.40;;
20976;SDS011;10647;51.016;3.720;2022-12-29T10:57:09;8.37;;;1.83;;
20976;SDS011;10647;51.016;3.720;2022-12-29T10:59:56;11.00;;;1.70;;
20976;SDS011;10647;51.016;3.720;2022-12-29T11:05:31;9.20;;;1.40;;
20976;SDS011;10647;51.016;3.720;2022-12-29T11:08:02;9.33;;;1.50;;
20976;SDS011;10647;51.016;3.720;2022-12-29T11:10:36;8.43;;;1.73;;
20976;SDS011;10647;51.016;3.720;2022-12-29T11:13:16;11.40;;;2.10;;
20976;SDS011;10647;51.016;3.720;2022-12-29T11:16:03;14.40;;;2.30;;
20976;SDS011;10647;51.016;3.720;2022-12-29T11:18:35;13.47;;;1.93;;
20976;SDS011;10647;51.016;3.720;2022-12-29T11:21:09;11.60;;;1.80;;
20976;SDS011;10647;51.016;3.720;2022-12-29T11:23:38;10.13;;;1.70;;
20976;SDS011;10647;51.016;3.720;2022-12-29T11:26:11;14.67;;;2.17;;
20976;SDS011;10647;51.016;3.720;2022-12-29T11:28:43;7.67;;;1.70;;
20976;SDS011;10647;51.016;3.720;2022-12-29T11:31:15;8.07;;;1.43;;
20976;SDS011;10647;51.016;3.720;2022-12-29T11:33:44;10.17;;;1.60;;
20976;SDS011;10647;51.016;3.720;2022-12-29T11:36:14;10.87;;;1.83;;
20976;SDS011;10647;51.016;3.720;2022-12-29T11:38:46;16.80;;;2.57;;
20976;SDS011;10647;51.016;3.720;2022-12-29T11:41:26;13.90;;;2.33;;
20976;SDS011;10647;51.016;3.720;2022-12-29T11:43:56;8.50;;;1.87;;
20976;SDS011;10647;51.016;3.720;2022-12-29T11:46:27;16.03;;;1.90;;
20976;SDS011;10647;51.016;3.720;2022-12-29T11:49:23;19.37;;;2.37;;
20976;SDS011;10647;51.016;3.720;2022-12-29T11:51:52;16.13;;;2.20;;
20976;SDS011;10647;51.016;3.720;2022-12-29T11:56:56;18.23;;;3.00;;
20976;SDS011;10647;51.016;3.720;2022-12-29T12:02:17;17.70;;;2.70;;
20976;SDS011;10647;51.016;3.720;2022-12-29T12:04:51;21.47;;;3.40;;
20976;SDS011;10647;51.016;3.720;2022-12-29T12:07:22;20.40;;;2.40;;
20976;SDS011;10647;51.016;3.720;2022-12-29T12:09:53;16.00;;;2.20;;
20976;SDS011;10647;51.016;3.720;2022-12-29T12:12:28;16.77;;;3.00;;
20976;SDS011;10647;51.016;3.720;2022-12-29T12:14:58;15.07;;;2.30;;
20976;SDS011;10647;51.016;3.720;2022-12-29T12:17:33;12.37;;;1.47;;
20976;SDS011;10647;51.016;3.720;2022-12-29T12:23:19;11.90;;;1.60;;
20976;SDS011;10647;51.016;3.720;2022-12-29T12:26:37;9.00;;;1.93;;
20976;SDS011;10647;51.016;3.720;2022-12-29T12:29:43;10.20;;;1.50;;
20976;SDS011;10647;51.016;3.720;2022-12-29T12:32:20;6.63;;;1.17;;
20976;SDS011;10647;51.016;3.720;2022-12-29T12:35:15;5.43;;;1.50;;
20976;SDS011;10647;51.016;3.720;2022-12-29T12:37:48;3.83;;;1.00;;
20976;SDS011;10647;51.016;3.720;2022-12-29T12:40:24;6.57;;;1.30;;
20976;SDS011;10647;51.016;3.720;2022-12-29T12:55:18;7.50;;;1.20;;
20976;SDS011;10647;51.016;3.720;2022-12-29T13:00:51;9.50;;;1.23;;
20976;SDS011;10647;51.016;3.720;2022-12-29T13:03:57;6.90;;;1.10;;
20976;SDS011;10647;51.016;3.720;2022-12-29T13:06:27;11.17;;;1.30;;
20976;SDS011;10647;51.016;3.720;2022-12-29T13:09:28;11.70;;;1.90;;
20976;SDS011;10647;51.016;3.720;2022-12-29T13:17:42;12.20;;;2.27;;
20976;SDS011;10647;51.016;3.720;2022-12-29T13:23:37;10.73;;;1.93;;
20976;SDS011;10647;51.016;3.720;2022-12-29T13:26:21;7.70;;;1.00;;
20976;SDS011;10647;51.016;3.720;2022-12-29T13:29:18;5.83;;;0.87;;
20976;SDS011;10647;51.016;3.720;2022-12-29T13:37:41;5.90;;;1.00;;
20976;SDS011;10647;51.016;3.720;2022-12-29T13:40:16;4.43;;;0.90;;
20976;SDS011;10647;51.016;3.720;2022-12-29T13:42:43;9.00;;;2.13;;
20976;SDS011;10647;51.016;3.720;2022-12-29T13:45:18;6.07;;;1.03;;
20976;SDS011;10647;51.016;3.720;2022-12-29T13:47:52;8.33;;;1.03;;
20976;SDS011;10647;51.016;3.720;2022-12-29T13:50:37;4.17;;;0.93;;
20976;SDS011;10647;51.016;3.720;2022-12-29T13:59:14;5.73;;;0.80;;
20976;SDS011;10647;51.016;3.720;2022-12-29T14:04:31;6.47;;;0.87;;
20976;SDS011;10647;51.016;3.720;2022-12-29T14:07:13;6.43;;;1.10;;
20976;SDS011;10647;51.016;3.720;2022-12-29T14:09:54;6.67;;;0.90;;
20976;SDS011;10647;51.016;3.720;2022-12-29T14:17:41;3.57;;;0.60;;
20976;SDS011;10647;51.016;3.720;2022-12-29T14:20:20;6.07;;;0.90;;
20976;SDS011;10647;51.016;3.720;2022-12-29T14:25:57;4.73;;;0.73;;
20976;SDS011;10647;51.016;3.720;2022-12-29T14:28:31;7.90;;;1.47;;
20976;SDS011;10647;51.016;3.720;2022-12-29T14:31:01;4.90;;;0.90;;
20976;SDS011;10647;51.016;3.720;2022-12-29T14:33:36;4.83;;;1.20;;
20976;SDS011;10647;51.016;3.720;2022-12-29T14:38:53;7.93;;;1.00;;
20976;SDS011;10647;51.016;3.720;2022-12-29T14:41:37;7.07;;;1.20;;
20976;SDS011;10647;51.016;3.720;2022-12-29T14:44:26;5.63;;;1.10;;
20976;SDS011;10647;51.016;3.720;2022-12-29T14:49:28;6.43;;;0.97;;
20976;SDS011;10647;51.016;3.720;2022-12-29T14:52:12;5.33;;;1.10;;
20976;SDS011;10647;51.016;3.720;2022-12-29T14:54:50;8.20;;;1.30;;
20976;SDS011;10647;51.016;3.720;2022-12-29T14:57:22;7.73;;;1.63;;
20976;SDS011;10647;51.016;3.720;2022-12-29T14:59:52;10.87;;;1.50;;
20976;SDS011;10647;51.016;3.720;2022-12-29T15:02:21;13.03;;;1.87;;
20976;SDS011;10647;51.016;3.720;2022-12-29T15:04:51;12.23;;;2.07;;
20976;SDS011;10647;51.016;3.720;2022-12-29T15:07:21;9.43;;;1.70;;
20976;SDS011;10647;51.016;3.720;2022-12-29T15:09:58;10.47;;;1.73;;
20976;SDS011;10647;51.016;3.720;2022-12-29T15:12:36;15.47;;;2.20;;
20976;SDS011;10647;51.016;3.720;2022-12-29T15:15:24;11.80;;;2.07;;
20976;SDS011;10647;51.016;3.720;2022-12-29T15:17:55;15.50;;;2.23;;
20976;SDS011;10647;51.016;3.720;2022-12-29T15:20:24;8.50;;;2.00;;
20976;SDS011;10647;51.016;3.720;2022-12-29T15:23:08;9.63;;;1.67;;
20976;SDS011;10647;51.016;3.720;2022-12-29T15:25:29;10.37;;;1.67;;
20976;SDS011;10647;51.016;3.720;2022-12-29T15:28:03;12.83;;;2.90;;
20976;SDS011;10647;51.016;3.720;2022-12-29T15:30:28;12.40;;;1.90;;
20976;SDS011;10647;51.016;3.720;2022-12-29T15:32:56;10.80;;;1.70;;
20976;SDS011;10647;51.016;3.720;2022-12-29T15:35:29;9.00;;;1.67;;
20976;SDS011;10647;51.016;3.720;2022-12-29T15:38:19;7.10;;;1.50;;
20976;SDS011;10647;51.016;3.720;2022-12-29T15:40:55;6.93;;;1.57;;
20976;SDS011;10647;51.016;3.720;2022-12-29T15:46:04;12.47;;;1.80;;
20976;SDS011;10647;51.016;3.720;2022-12-29T15:48:32;9.07;;;1.57;;
20976;SDS011;10647;51.016;3.720;2022-12-29T15:51:02;13.20;;;2.00;;
20976;SDS011;10647;51.016;3.720;2022-12-29T15:53:31;10.93;;;1.80;;
20976;SDS011;10647;51.016;3.720;2022-12-29T15:58:41;11.23;;;2.20;;
20976;SDS011;10647;51.016;3.720;2022-12-29T16:04:03;10.07;;;1.60;;
20976;SDS011;10647;51.016;3.720;2022-12-29T16:06:32;13.73;;;1.90;;
20976;SDS011;10647;51.016;3.720;2022-12-29T16:11:38;13.70;;;2.30;;
20976;SDS011;10647;51.016;3.720;2022-12-29T16:14:16;13.97;;;1.90;;
20976;SDS011;10647;51.016;3.720;2022-12-29T16:16:45;11.43;;;1.90;;
20976;SDS011;10647;51.016;3.720;2022-12-29T16:19:25;14.07;;;2.43;;
20976;SDS011;10647;51.016;3.720;2022-12-29T16:21:55;14.53;;;2.20;;
20976;SDS011;10647;51.016;3.720;2022-12-29T16:24:25;16.50;;;2.30;;
20976;SDS011;10647;51.016;3.720;2022-12-29T16:27:02;9.83;;;2.00;;
20976;SDS011;10647;51.016;3.720;2022-12-29T16:29:25;14.00;;;2.23;;
20976;SDS011;10647;51.016;3.720;2022-12-29T16:31:59;12.57;;;2.30;;
20976;SDS011;10647;51.016;3.720;2022-12-29T16:34:32;11.47;;;2.23;;
20976;SDS011;10647;51.016;3.720;2022-12-29T16:37:23;18.17;;;2.87;;
20976;SDS011;10647;51.016;3.720;2022-12-29T16:39:35;19.07;;;2.77;;
20976;SDS011;10647;51.016;3.720;2022-12-29T16:47:57;14.00;;;2.63;;
20976;SDS011;10647;51.016;3.720;2022-12-29T16:50:34;14.90;;;2.87;;
20976;SDS011;10647;51.016;3.720;2022-12-29T16:53:04;15.23;;;2.53;;
20976;SDS011;10647;51.016;3.720;2022-12-29T16:55:34;16.10;;;2.50;;
20976;SDS011;10647;51.016;3.720;2022-12-29T16:58:11;15.70;;;2.53;;
20976;SDS011;10647;51.016;3.720;2022-12-29T17:00:40;16.10;;;3.07;;
20976;SDS011;10647;51.016;3.720;2022-12-29T17:03:09;15.37;;;2.73;;
20976;SDS011;10647;51.016;3.720;2022-12-29T17:05:37;17.70;;;2.80;;
20976;SDS011;10647;51.016;3.720;2022-12-29T17:08:18;19.93;;;3.10;;
20976;SDS011;10647;51.016;3.720;2022-12-29T17:11:08;14.30;;;2.43;;
20976;SDS011;10647;51.016;3.720;2022-12-29T17:13:54;17.57;;;3.03;;
20976;SDS011;10647;51.016;3.720;2022-12-29T17:16:22;12.40;;;2.60;;
20976;SDS011;10647;51.016;3.720;2022-12-29T17:18:49;18.37;;;3.10;;
20976;SDS011;10647;51.016;3.720;2022-12-29T17:21:17;19.90;;;2.90;;
20976;SDS011;10647;51.016;3.720;2022-12-29T17:23:44;15.33;;;2.50;;
20976;SDS011;10647;51.016;3.720;2022-12-29T17:26:12;19.63;;;2.90;;
20976;SDS011;10647;51.016;3.720;2022-12-29T17:28:39;17.60;;;2.70;;
20976;SDS011;10647;51.016;3.720;2022-12-29T17:31:08;15.77;;;2.97;;
20976;SDS011;10647;51.016;3.720;2022-12-29T17:33:37;16.33;;;2.63;;
20976;SDS011;10647;51.016;3.720;2022-12-29T17:36:10;16.20;;;2.83;;